createdAt,value
2018-07-11T00:02:18.656Z,100.00
2018-07-11T00:04:48.040Z,100.00
2018-07-11T00:07:17.362Z,100.00
2018-07-11T00:09:46.713Z,100.00
2018-07-11T00:12:16.059Z,100.00
2018-07-11T00:14:45.391Z,100.00
2018-07-11T00:17:14.817Z,100.00
2018-07-11T00:19:44.576Z,100.00
2018-07-11T00:22:14.092Z,100.00
2018-07-11T00:24:43.395Z,99.82
2018-07-11T00:27:12.844Z,100.00
2018-07-11T00:29:42.188Z,100.00
2018-07-11T00:32:11.526Z,100.00
2018-07-11T00:34:40.888Z,100.00
2018-07-11T00:37:10.321Z,100.00
2018-07-11T00:39:39.645Z,100.00
2018-07-11T00:42:09.172Z,99.41
2018-07-11T00:44:38.516Z,99.17
2018-07-11T00:47:07.843Z,99.64
2018-07-11T00:49:37.201Z,100.00
2018-07-11T00:52:06.526Z,99.19
2018-07-11T00:54:35.889Z,98.99
2018-07-11T00:57:05.248Z,98.94
2018-07-11T00:59:34.595Z,98.59
2018-07-11T01:02:07.504Z,99.16
2018-07-11T01:04:36.896Z,98.19
2018-07-11T01:07:07.439Z,98.61
2018-07-11T01:09:45.008Z,98.50
2018-07-11T01:12:14.376Z,98.22
2018-07-11T01:14:44.082Z,98.15
2018-07-11T01:17:18.515Z,98.76
2018-07-11T01:19:48.711Z,98.72
2018-07-11T01:22:18.054Z,98.67
2018-07-11T01:24:47.409Z,99.20
2018-07-11T01:27:16.767Z,99.20
2018-07-11T01:29:46.115Z,98.74
2018-07-11T01:32:15.448Z,98.52
2018-07-11T01:34:44.781Z,98.26
2018-07-11T01:37:14.164Z,97.79
2018-07-11T01:39:43.528Z,98.82
2018-07-11T01:42:12.908Z,98.04
2018-07-11T01:44:42.687Z,98.76
2018-07-11T01:47:13.021Z,98.39
2018-07-11T01:49:42.415Z,98.07
2018-07-11T01:52:28.759Z,98.72
2018-07-11T01:54:58.140Z,98.90
2018-07-11T01:57:27.479Z,100.00
2018-07-11T01:59:58.139Z,99.32
2018-07-11T02:02:27.503Z,99.55
2018-07-11T02:04:56.848Z,99.95
2018-07-11T02:07:26.211Z,99.96
2018-07-11T02:09:55.634Z,99.78
2018-07-11T02:12:24.955Z,99.63
2018-07-11T02:14:59.687Z,99.32
2018-07-11T02:17:29.039Z,99.62
2018-07-11T02:19:58.472Z,99.97
2018-07-11T02:22:28.208Z,99.06
2018-07-11T02:24:57.544Z,99.00
2018-07-11T02:27:26.885Z,97.85
2018-07-11T02:29:56.212Z,98.32
2018-07-11T02:32:25.720Z,98.74
2018-07-11T02:34:55.067Z,97.73
2018-07-11T02:37:24.455Z,98.52
2018-07-11T02:39:53.816Z,98.48
2018-07-11T02:42:23.180Z,98.48
2018-07-11T02:44:52.772Z,98.91
2018-07-11T02:47:27.472Z,97.97
2018-07-11T02:49:56.820Z,98.56
2018-07-11T02:52:26.232Z,98.85
2018-07-11T02:54:55.573Z,98.20
2018-07-11T02:57:25.056Z,98.18
2018-07-11T02:59:54.396Z,98.68
2018-07-11T03:02:23.779Z,98.07
2018-07-11T03:04:53.188Z,99.03
2018-07-11T03:07:22.493Z,98.81
2018-07-11T03:09:51.876Z,98.94
2018-07-11T03:12:21.216Z,100.00
2018-07-11T03:14:51.949Z,99.91
2018-07-11T03:17:21.786Z,99.05
2018-07-11T03:19:51.136Z,100.00
2018-07-11T03:22:20.486Z,98.73
2018-07-11T03:24:49.900Z,98.97
2018-07-11T03:27:19.228Z,98.07
2018-07-11T03:29:48.572Z,98.16
2018-07-11T03:32:18.013Z,98.29
2018-07-11T03:34:47.400Z,98.58
2018-07-11T03:37:16.724Z,99.14
2018-07-11T03:39:46.132Z,98.61
2018-07-11T03:42:15.621Z,98.46
2018-07-11T03:44:44.946Z,98.08
2018-07-11T03:47:14.476Z,98.16
2018-07-11T03:49:43.799Z,98.35
2018-07-11T03:52:13.099Z,98.82
2018-07-11T03:54:42.483Z,98.66
2018-07-11T03:57:11.800Z,97.95
2018-07-11T03:59:41.176Z,98.20
2018-07-11T04:02:10.507Z,98.46
2018-07-11T04:04:39.822Z,97.68
2018-07-11T04:07:09.172Z,98.02
2018-07-11T04:09:38.531Z,98.61
2018-07-11T04:12:07.875Z,98.59
2018-07-11T04:14:37.183Z,98.72
2018-07-11T04:17:06.504Z,98.35
2018-07-11T04:19:35.929Z,98.39
2018-07-11T04:22:05.366Z,98.19
2018-07-11T04:24:34.729Z,98.78
2018-07-11T04:27:04.081Z,97.96
2018-07-11T04:29:33.499Z,98.05
2018-07-11T04:32:02.879Z,97.58
2018-07-11T04:34:32.238Z,98.21
2018-07-11T04:37:01.620Z,97.95
2018-07-11T04:39:30.956Z,98.14
2018-07-11T04:42:00.285Z,97.41
2018-07-11T04:44:29.641Z,97.20
2018-07-11T04:46:59.006Z,96.89
2018-07-11T04:49:28.496Z,97.02
2018-07-11T04:51:57.611Z,96.04
2018-07-11T04:54:26.955Z,95.58
2018-07-11T04:56:56.309Z,95.89
2018-07-11T04:59:25.628Z,95.62
2018-07-11T05:01:55.050Z,95.26
2018-07-11T05:04:24.497Z,94.91
2018-07-11T05:06:53.816Z,95.14
2018-07-11T05:09:23.140Z,94.62
2018-07-11T05:11:52.961Z,94.04
2018-07-11T05:14:22.463Z,93.91
2018-07-11T05:16:51.793Z,94.62
2018-07-11T05:19:21.099Z,94.04
2018-07-11T05:21:50.437Z,94.96
2018-07-11T05:24:19.740Z,94.76
2018-07-11T05:26:49.455Z,94.97
2018-07-11T05:29:18.781Z,94.77
2018-07-11T05:31:48.116Z,94.69
2018-07-11T05:34:17.440Z,93.77
2018-07-11T05:36:46.744Z,94.14
2018-07-11T05:39:16.089Z,94.04
2018-07-11T05:41:45.412Z,94.46
2018-07-11T05:44:15.010Z,93.86
2018-07-11T05:46:44.353Z,93.24
2018-07-11T05:49:13.720Z,92.63
2018-07-11T05:51:43.032Z,93.47
2018-07-11T05:54:12.356Z,93.16
2018-07-11T05:56:41.765Z,93.15
2018-07-11T05:59:11.144Z,92.09
2018-07-11T06:01:40.482Z,92.67
2018-07-11T06:04:09.816Z,92.49
2018-07-11T06:06:39.129Z,92.10
2018-07-11T06:09:08.895Z,92.64
2018-07-11T06:11:38.256Z,92.03
2018-07-11T06:14:07.563Z,91.88
2018-07-11T06:16:43.505Z,92.12
2018-07-11T06:19:12.840Z,91.51
2018-07-11T06:21:42.899Z,91.25
2018-07-11T06:24:12.253Z,89.77
2018-07-11T06:26:41.595Z,91.85
2018-07-11T06:29:10.952Z,91.66
2018-07-11T06:31:40.280Z,90.98
2018-07-11T06:34:09.611Z,91.93
2018-07-11T06:36:38.938Z,90.86
2018-07-11T06:39:08.697Z,90.16
2018-07-11T06:41:38.069Z,90.28
2018-07-11T06:44:07.403Z,90.37
2018-07-11T06:46:36.772Z,89.37
2018-07-11T06:49:06.137Z,90.22
2018-07-11T06:51:35.679Z,87.65
2018-07-11T06:54:05.008Z,88.14
2018-07-11T06:56:34.369Z,88.04
2018-07-11T06:59:03.839Z,86.13
2018-07-11T07:01:33.168Z,87.25
2018-07-11T07:04:02.489Z,86.31
2018-07-11T07:06:31.556Z,82.34
2018-07-11T07:09:00.892Z,84.59
2018-07-11T07:11:30.201Z,85.44
2018-07-11T07:13:59.556Z,84.65
2018-07-11T07:16:28.883Z,84.46
2018-07-11T07:18:58.256Z,83.88
2018-07-11T07:21:27.637Z,82.85
2018-07-11T07:23:56.990Z,82.01
2018-07-11T07:26:26.296Z,81.08
2018-07-11T07:28:55.708Z,79.75
2018-07-11T07:31:25.080Z,79.40
2018-07-11T07:33:54.475Z,79.35
2018-07-11T07:36:23.872Z,79.36
2018-07-11T07:38:53.247Z,77.10
2018-07-11T07:41:22.552Z,76.33
2018-07-11T07:43:51.888Z,74.05
2018-07-11T07:46:21.225Z,73.75
2018-07-11T07:48:50.554Z,74.57
2018-07-11T07:51:19.899Z,72.00
2018-07-11T07:53:49.008Z,75.29
2018-07-11T07:56:18.380Z,73.18
2018-07-11T07:58:47.740Z,71.52
2018-07-11T08:01:17.075Z,72.35
2018-07-11T08:03:46.407Z,71.23
2018-07-11T08:06:15.772Z,69.30
2018-07-11T08:08:45.118Z,70.67
2018-07-11T08:11:14.488Z,69.87
2018-07-11T08:13:43.836Z,68.19
2018-07-11T08:16:13.164Z,69.34
2018-07-11T08:18:42.468Z,68.57
2018-07-11T08:21:11.853Z,69.11
2018-07-11T08:23:58.140Z,65.78
2018-07-11T08:26:44.645Z,67.12
2018-07-11T08:30:35.099Z,65.54
2018-07-11T08:33:38.752Z,65.85
2018-07-11T08:36:23.324Z,66.36
2018-07-11T08:41:11.904Z,66.87
2018-07-11T08:43:58.676Z,66.94
2018-07-11T08:46:44.813Z,68.24
2018-07-11T08:49:39.619Z,70.14
2018-07-11T08:55:01.154Z,67.87
2018-07-11T08:58:53.957Z,66.40
2018-07-11T09:01:41.616Z,65.35
2018-07-11T09:04:58.127Z,65.69
2018-07-11T09:07:51.901Z,66.51
2018-07-11T09:13:50.229Z,66.50
2018-07-11T09:21:44.644Z,67.94
2018-07-11T09:24:47.100Z,69.44
2018-07-11T09:27:16.479Z,71.16
2018-07-11T09:29:46.522Z,70.86
2018-07-11T09:32:16.232Z,72.10
2018-07-11T09:34:46.469Z,71.66
2018-07-11T09:37:15.853Z,69.70
2018-07-11T09:39:45.445Z,69.05
2018-07-11T09:42:14.816Z,69.66
2018-07-11T09:44:44.362Z,70.97
2018-07-11T09:47:18.972Z,70.95
2018-07-11T09:49:48.427Z,71.81
2018-07-11T09:52:17.881Z,71.18
2018-07-11T09:54:47.123Z,69.44
2018-07-11T09:57:17.176Z,69.49
2018-07-11T09:59:46.527Z,68.46
2018-07-11T10:02:15.938Z,68.24
2018-07-11T10:04:45.280Z,65.94
2018-07-11T10:07:14.636Z,65.67
2018-07-11T10:09:44.007Z,64.58
2018-07-11T10:12:13.319Z,64.13
2018-07-11T10:14:42.639Z,63.37
2018-07-11T10:17:11.945Z,60.76
2018-07-11T10:19:41.303Z,63.46
2018-07-11T10:22:11.232Z,64.08
2018-07-11T10:24:40.922Z,63.68
2018-07-11T10:27:10.243Z,64.13
2018-07-11T10:29:39.335Z,64.54
2018-07-11T10:32:08.798Z,63.90
2018-07-11T10:34:38.140Z,66.19
2018-07-11T10:37:07.543Z,65.16
2018-07-11T10:39:36.880Z,65.55
2018-07-11T10:42:06.192Z,65.97
2018-07-11T10:44:35.556Z,63.91
2018-07-11T10:47:10.829Z,63.56
2018-07-11T10:49:40.325Z,63.74
2018-07-11T10:52:09.821Z,64.56
2018-07-11T10:54:39.636Z,67.26
2018-07-11T10:57:09.033Z,67.60
2018-07-11T10:59:38.976Z,68.52
2018-07-11T11:02:08.412Z,66.37
2018-07-11T11:04:37.777Z,67.45
2018-07-11T11:07:07.479Z,66.42
2018-07-11T11:09:37.126Z,65.37
2018-07-11T11:12:06.482Z,64.88
2018-07-11T11:14:35.824Z,61.65
2018-07-11T11:17:05.255Z,62.60
2018-07-11T11:19:34.633Z,61.56
2018-07-11T11:22:03.980Z,61.65
2018-07-11T11:24:33.303Z,60.65
2018-07-11T11:27:02.663Z,61.77
2018-07-11T11:29:31.969Z,60.90
2018-07-11T11:32:01.311Z,61.78
2018-07-11T11:34:30.624Z,61.89
2018-07-11T11:36:59.962Z,62.61
2018-07-11T11:39:29.387Z,61.66
2018-07-11T11:41:58.836Z,60.30
2018-07-11T11:44:28.147Z,60.49
2018-07-11T11:47:01.620Z,61.03
2018-07-11T11:49:31.717Z,62.86
2018-07-11T11:52:01.083Z,62.52
2018-07-11T11:54:30.725Z,62.66
2018-07-11T11:57:00.052Z,65.76
2018-07-11T11:59:29.380Z,64.66
2018-07-11T12:01:58.705Z,65.61
2018-07-11T12:04:27.748Z,67.90
2018-07-11T12:06:57.201Z,69.18
2018-07-11T12:09:26.504Z,70.22
2018-07-11T12:11:59.059Z,71.37
2018-07-11T12:14:28.605Z,71.61
2018-07-11T12:16:58.019Z,77.46
2018-07-11T12:19:27.419Z,76.79
2018-07-11T12:21:56.793Z,78.22
2018-07-11T12:24:26.133Z,81.36
2018-07-11T12:26:55.469Z,80.45
2018-07-11T12:29:24.808Z,79.54
2018-07-11T12:31:54.232Z,80.61
2018-07-11T12:34:23.564Z,79.70
2018-07-11T12:36:54.814Z,78.99
2018-07-11T12:39:24.558Z,82.00
2018-07-11T12:41:54.093Z,84.57
2018-07-11T12:44:23.408Z,83.61
2018-07-11T12:46:52.759Z,84.70
2018-07-11T12:49:22.138Z,84.84
2018-07-11T12:51:51.532Z,84.87
2018-07-11T12:54:20.994Z,84.34
2018-07-11T12:56:50.331Z,83.90
2018-07-11T12:59:19.690Z,84.58
2018-07-11T13:01:49.125Z,84.94
2018-07-11T13:04:18.460Z,85.67
2018-07-11T13:06:48.167Z,87.19
2018-07-11T13:09:17.524Z,87.22
2018-07-11T13:11:46.855Z,87.93
2018-07-11T13:14:16.193Z,86.99
2018-07-11T13:16:45.587Z,85.50
2018-07-11T13:19:14.898Z,88.84
2018-07-11T13:21:44.730Z,89.72
2018-07-11T13:24:14.158Z,88.32
2018-07-11T13:26:43.807Z,88.54
2018-07-11T13:29:13.173Z,88.33
2018-07-11T13:31:42.535Z,88.61
2018-07-11T13:34:11.904Z,87.94
2018-07-11T13:36:41.227Z,88.59
2018-07-11T13:39:19.156Z,90.55
2018-07-11T13:41:49.392Z,91.97
2018-07-11T13:44:18.852Z,92.63
2018-07-11T13:46:48.664Z,92.04
2018-07-11T13:49:18.036Z,91.67
2018-07-11T13:51:47.365Z,91.58
2018-07-11T13:54:16.670Z,93.10
2018-07-11T13:56:47.079Z,94.69
2018-07-11T13:59:17.184Z,94.07
2018-07-11T14:01:46.571Z,91.62
2018-07-11T14:04:15.968Z,91.54
2018-07-11T14:06:45.332Z,93.08
2018-07-11T14:19:25.859Z,92.99
2018-07-11T14:21:55.840Z,92.68
2018-07-11T14:24:25.396Z,94.62
2018-07-11T14:26:55.273Z,94.42
2018-07-11T14:29:29.032Z,93.73
2018-07-11T14:31:59.475Z,92.67
2018-07-11T14:34:28.860Z,91.58
2018-07-11T14:36:58.315Z,91.73
2018-07-11T14:39:27.676Z,92.61
2018-07-11T14:41:57.072Z,91.80
2018-07-11T14:44:26.461Z,91.75
2018-07-11T14:46:55.788Z,87.53
2018-07-11T14:49:25.111Z,86.43
2018-07-11T14:51:54.642Z,85.29
2018-07-11T14:54:24.053Z,86.15
2018-07-11T14:56:53.548Z,85.45
2018-07-11T14:59:23.392Z,87.47
2018-07-11T15:01:52.712Z,87.79
2018-07-11T15:04:22.041Z,89.03
2018-07-11T15:06:51.415Z,89.83
2018-07-11T15:09:21.191Z,90.19
2018-07-11T15:11:50.185Z,90.01
2018-07-11T15:14:19.540Z,90.03
2018-07-11T15:16:49.051Z,89.95
2018-07-11T15:19:18.828Z,90.02
2018-07-11T15:21:48.211Z,89.83
2018-07-11T15:24:17.703Z,89.70
2018-07-11T15:26:47.388Z,89.52
2018-07-11T15:29:16.760Z,91.18
2018-07-11T15:31:46.244Z,90.21
2018-07-11T15:34:15.653Z,90.16
2018-07-11T15:36:45.035Z,88.25
2018-07-11T15:39:14.408Z,87.59
2018-07-11T15:41:43.756Z,86.24
2018-07-11T15:44:13.116Z,84.76
2018-07-11T15:46:42.650Z,85.30
2018-07-11T15:49:12.793Z,83.60
2018-07-11T15:51:42.856Z,80.88
2018-07-11T15:54:13.729Z,80.24
2018-07-11T15:56:44.171Z,76.62
2018-07-11T15:59:15.805Z,76.38
2018-07-11T16:01:49.832Z,76.15
2018-07-11T16:04:51.367Z,76.24
2018-07-11T16:07:20.792Z,78.74
2018-07-11T16:09:56.863Z,81.21
2018-07-11T16:12:26.531Z,80.94
2018-07-11T16:14:56.644Z,83.71
2018-07-11T16:17:25.968Z,84.12
2018-07-11T16:19:55.337Z,82.20
2018-07-11T16:22:24.670Z,81.58
2018-07-11T16:24:54.267Z,84.13
2018-07-11T16:27:23.602Z,83.77
2018-07-11T16:29:52.916Z,83.26
2018-07-11T16:32:22.281Z,82.86
2018-07-11T16:34:51.623Z,85.44
2018-07-11T16:37:21.214Z,85.57
2018-07-11T16:39:50.527Z,85.88
2018-07-11T16:42:20.080Z,86.95
2018-07-11T16:44:49.904Z,85.48
2018-07-11T16:47:19.253Z,86.66
2018-07-11T16:49:49.727Z,84.26
2018-07-11T16:52:19.092Z,83.12
2018-07-11T16:54:48.472Z,81.75
2018-07-11T16:57:27.257Z,82.76
2018-07-11T17:00:09.368Z,82.75
2018-07-11T17:02:42.687Z,80.92
2018-07-11T17:05:15.623Z,80.61
2018-07-11T17:08:00.437Z,83.00
2018-07-11T17:10:30.952Z,82.26
2018-07-11T17:13:12.964Z,83.01
2018-07-11T17:15:48.176Z,84.28
2018-07-11T17:18:31.764Z,83.83
2018-07-11T17:21:06.633Z,85.01
2018-07-11T17:23:39.717Z,84.71
2018-07-11T17:26:09.057Z,86.08
2018-07-11T17:28:38.432Z,86.55
2018-07-11T17:31:07.791Z,84.50
2018-07-11T17:33:37.148Z,85.87
2018-07-11T17:36:06.492Z,85.35
2018-07-11T17:38:35.895Z,83.65
2018-07-11T17:41:06.563Z,82.95
2018-07-11T17:43:39.136Z,78.87
2018-07-11T17:46:08.976Z,76.51
2018-07-11T17:48:47.858Z,77.03
2018-07-11T17:52:21.979Z,77.78
2018-07-11T17:55:09.492Z,80.93
2018-07-11T17:57:57.232Z,81.64
2018-07-11T18:00:55.456Z,84.66
2018-07-11T18:03:37.863Z,85.60
2018-07-11T18:06:14.653Z,87.15
2018-07-11T18:09:11.387Z,88.79
2018-07-11T18:11:55.817Z,89.18
2018-07-11T18:14:50.552Z,89.50
2018-07-11T18:17:31.209Z,90.95
2018-07-11T18:20:13.104Z,90.50
2018-07-11T18:22:55.124Z,91.37
2018-07-11T18:26:48.876Z,92.29
2018-07-11T18:29:43.689Z,93.27
2018-07-11T18:32:25.996Z,93.98
2018-07-11T18:35:16.452Z,94.47
2018-07-11T18:37:55.852Z,94.18
2018-07-11T18:40:36.624Z,93.61
2018-07-11T18:45:25.812Z,93.01
2018-07-11T18:48:14.721Z,93.94
2018-07-11T18:51:30.231Z,93.90
2018-07-11T18:54:15.929Z,94.59
2018-07-11T18:57:02.527Z,93.37
2018-07-11T18:59:52.164Z,94.11
2018-07-11T19:03:41.416Z,95.07
2018-07-11T19:06:42.917Z,95.25
2018-07-11T19:09:29.777Z,95.31
2018-07-11T19:12:12.095Z,95.62
2018-07-11T19:14:47.750Z,96.39
2018-07-11T19:17:29.414Z,96.52
2018-07-11T19:20:16.357Z,95.60
2018-07-11T19:23:40.753Z,95.66
2018-07-11T19:26:23.695Z,95.22
2018-07-11T19:29:58.572Z,96.29
2018-07-11T19:32:54.981Z,95.99
2018-07-11T19:35:42.325Z,95.31
2018-07-11T19:39:32.428Z,95.26
2018-07-11T19:44:24.284Z,96.10
2018-07-11T19:49:19.078Z,96.59
2018-07-11T19:52:00.704Z,97.18
2018-07-11T19:56:48.536Z,96.83
2018-07-11T19:59:18.120Z,97.04
2018-07-11T20:01:47.951Z,97.37
2018-07-11T20:04:17.420Z,97.58
2018-07-11T20:06:46.835Z,98.13
2018-07-11T20:09:16.186Z,96.94
2018-07-11T20:11:45.552Z,98.61
2018-07-11T20:14:14.915Z,98.40
2018-07-11T20:16:44.763Z,98.44
2018-07-11T20:19:14.212Z,97.74
2018-07-11T20:21:43.608Z,97.45
2018-07-11T20:24:13.110Z,96.62
2018-07-11T20:26:43.747Z,97.55
2018-07-11T20:29:13.741Z,97.25
2018-07-11T20:31:43.795Z,97.10
2018-07-11T20:34:13.159Z,96.24
2018-07-11T20:36:42.577Z,97.18
2018-07-11T20:39:12.108Z,96.82
2018-07-11T20:41:41.688Z,96.62
2018-07-11T20:44:11.036Z,96.14
2018-07-11T20:46:40.799Z,97.11
2018-07-11T20:49:15.393Z,97.25
2018-07-11T20:51:44.741Z,97.22
2018-07-11T20:54:14.053Z,97.62
2018-07-11T20:56:43.426Z,97.18
2018-07-11T20:59:30.227Z,97.20
2018-07-11T21:02:16.524Z,97.82
2018-07-11T21:07:08.484Z,96.95
2018-07-11T21:09:56.851Z,98.27
2018-07-11T21:12:55.999Z,98.10
2018-07-11T21:16:41.219Z,97.99
2018-07-11T21:19:11.607Z,97.66
2018-07-11T21:21:42.012Z,97.91
2018-07-11T21:24:12.232Z,97.25
2018-07-11T21:26:41.551Z,97.35
2018-07-11T21:29:10.890Z,97.51
2018-07-11T21:31:40.296Z,97.23
2018-07-11T21:34:09.641Z,97.03
2018-07-11T21:36:38.963Z,96.91
2018-07-11T21:39:08.287Z,96.94
2018-07-11T21:41:37.612Z,96.80
2018-07-11T21:44:06.939Z,96.29
2018-07-11T21:46:36.320Z,96.30
2018-07-11T21:49:05.806Z,95.78
2018-07-11T21:51:35.124Z,95.14
2018-07-11T21:54:04.496Z,94.89
2018-07-11T21:56:33.815Z,94.48
2018-07-11T21:59:03.161Z,94.79
2018-07-11T22:01:32.517Z,95.75
2018-07-11T22:04:01.902Z,96.88
2018-07-11T22:06:31.263Z,96.57
2018-07-11T22:09:00.583Z,96.44
2018-07-11T22:11:29.908Z,95.97
2018-07-11T22:13:59.225Z,96.66
2018-07-11T22:16:32.217Z,97.31
2018-07-11T22:19:01.280Z,96.33
2018-07-11T22:21:28.983Z,96.47
2018-07-11T22:23:56.711Z,95.93
2018-07-11T22:26:24.412Z,96.31
2018-07-11T22:28:52.214Z,96.03
2018-07-11T22:31:19.940Z,95.95
2018-07-11T22:33:47.650Z,95.66
2018-07-11T22:36:15.353Z,95.77
2018-07-11T22:38:43.071Z,94.87
2018-07-11T22:41:10.788Z,95.07
2018-07-11T22:43:38.488Z,95.05
2018-07-11T22:46:06.209Z,94.86
2018-07-11T22:48:33.920Z,95.89
2018-07-11T22:51:01.629Z,95.19
2018-07-11T22:53:29.348Z,96.07
2018-07-11T22:55:57.057Z,95.56
2018-07-11T22:58:24.748Z,95.42
2018-07-11T23:00:52.471Z,95.34
2018-07-11T23:03:20.289Z,95.63
2018-07-11T23:05:47.982Z,95.88
2018-07-11T23:08:15.734Z,95.12
2018-07-11T23:10:43.403Z,95.44
2018-07-11T23:13:11.114Z,95.97
2018-07-11T23:15:38.833Z,95.61
2018-07-11T23:18:07.408Z,94.96
2018-07-11T23:20:35.179Z,94.96
2018-07-11T23:23:02.828Z,95.33
2018-07-11T23:25:30.536Z,95.22
2018-07-11T23:27:58.241Z,95.57
2018-07-11T23:30:25.972Z,95.22
2018-07-11T23:32:53.677Z,95.01
2018-07-11T23:35:21.392Z,95.27
2018-07-11T23:37:49.112Z,95.43
2018-07-11T23:40:16.824Z,95.40
2018-07-11T23:42:44.541Z,96.85
2018-07-11T23:45:12.256Z,97.32
2018-07-11T23:47:39.967Z,97.99
2018-07-11T23:50:07.674Z,98.15
2018-07-11T23:52:35.400Z,98.22
2018-07-11T23:55:03.120Z,98.35
2018-07-11T23:57:30.828Z,97.94
2018-07-11T23:59:58.551Z,99.02
